createdAt,value
2022-12-22T00:02:11.397Z,24.49
2022-12-22T00:07:19.474Z,26.22
2022-12-22T00:12:28.464Z,25.12
2022-12-22T00:17:37.118Z,25.54
2022-12-22T00:22:45.920Z,26.25
2022-12-22T00:27:54.937Z,26.03
2022-12-22T00:33:03.692Z,27.38
2022-12-22T00:38:12.182Z,26.83
2022-12-22T00:43:21.313Z,26.39
2022-12-22T00:48:29.955Z,24.73
2022-12-22T00:53:38.290Z,24.62
2022-12-22T00:58:46.523Z,25.10
2022-12-22T01:03:55.543Z,24.66
2022-12-22T01:09:03.611Z,26.49
2022-12-22T01:14:12.789Z,25.36
2022-12-22T01:19:21.568Z,25.80
2022-12-22T01:24:30.417Z,24.29
2022-12-22T01:29:38.937Z,23.84
2022-12-22T01:34:48.478Z,25.44
2022-12-22T01:39:56.868Z,25.44
2022-12-22T01:45:05.710Z,25.45
2022-12-22T01:50:14.225Z,24.77
2022-12-22T01:55:23.087Z,23.87
2022-12-22T02:00:31.677Z,25.04
2022-12-22T02:05:40.515Z,25.70
2022-12-22T02:10:49.556Z,25.98
2022-12-22T02:15:58.014Z,23.48
2022-12-22T02:21:06.421Z,26.27
2022-12-22T02:26:15.072Z,29.70
2022-12-22T02:31:24.092Z,28.78
2022-12-22T02:36:33.187Z,25.37
2022-12-22T02:41:41.418Z,28.20
2022-12-22T02:46:50.131Z,26.51
2022-12-22T02:51:59.163Z,24.44
2022-12-22T02:57:08.058Z,25.78
2022-12-22T03:02:16.536Z,27.78
2022-12-22T03:07:25.413Z,25.80
2022-12-22T03:12:34.054Z,26.69
2022-12-22T03:17:43.140Z,26.67
2022-12-22T03:22:51.459Z,23.87
2022-12-22T03:28:00.376Z,26.12
2022-12-22T03:33:09.432Z,24.28
2022-12-22T03:38:18.405Z,24.78
2022-12-22T03:43:27.093Z,27.13
2022-12-22T03:48:36.036Z,26.08
2022-12-22T03:53:44.696Z,25.07
2022-12-22T03:58:53.925Z,25.35
2022-12-22T04:04:02.225Z,26.00
2022-12-22T04:09:11.376Z,25.72
2022-12-22T04:14:19.931Z,23.89
2022-12-22T04:19:28.714Z,25.12
2022-12-22T04:24:37.023Z,24.75
2022-12-22T04:29:46.029Z,23.63
2022-12-22T04:34:54.258Z,21.88
2022-12-22T04:40:03.079Z,24.72
2022-12-22T04:45:11.717Z,24.08
2022-12-22T04:50:23.719Z,23.78
2022-12-22T04:55:22.263Z,26.72
2022-12-22T05:00:31.124Z,27.10
2022-12-22T05:05:39.380Z,27.83
2022-12-22T05:10:48.196Z,25.52
2022-12-22T05:15:56.642Z,26.27
2022-12-22T05:21:08.791Z,27.43
2022-12-22T05:26:07.454Z,27.54
2022-12-22T05:31:16.490Z,24.46
2022-12-22T05:36:24.871Z,25.13
2022-12-22T05:41:34.307Z,22.82
2022-12-22T05:46:42.961Z,23.72
2022-12-22T05:51:51.575Z,23.62
2022-12-22T05:57:00.406Z,24.19
2022-12-22T06:02:09.463Z,25.92
2022-12-22T06:07:17.742Z,25.75
2022-12-22T06:12:26.543Z,24.23
2022-12-22T06:17:39.073Z,27.62
2022-12-22T06:22:42.623Z,27.86
2022-12-22T06:27:51.280Z,30.50
2022-12-22T06:33:00.297Z,30.17
2022-12-22T06:38:08.224Z,31.83
2022-12-22T06:43:16.678Z,31.75
2022-12-22T06:48:25.115Z,32.99
2022-12-22T06:53:33.974Z,29.39
2022-12-22T06:58:42.206Z,30.95
2022-12-22T07:03:50.890Z,31.46
2022-12-22T07:08:59.413Z,33.81
2022-12-22T07:14:08.024Z,33.93
2022-12-22T07:19:16.465Z,32.28
2022-12-22T07:24:25.143Z,33.71
2022-12-22T07:29:33.900Z,30.00
2022-12-22T07:34:43.007Z,29.35
2022-12-22T07:39:52.143Z,31.15
2022-12-22T07:45:01.192Z,28.37
2022-12-22T07:50:09.833Z,27.07
2022-12-22T07:55:18.380Z,27.63
2022-12-22T08:00:26.837Z,27.43
2022-12-22T08:05:35.570Z,31.62
2022-12-22T08:10:44.300Z,30.59
2022-12-22T08:15:53.568Z,33.48
2022-12-22T08:21:02.092Z,34.57
2022-12-22T08:26:10.800Z,32.65
2022-12-22T08:31:18.819Z,39.31
2022-12-22T08:36:28.065Z,39.83
2022-12-22T08:41:36.422Z,41.43
2022-12-22T08:46:45.608Z,39.82
2022-12-22T08:51:53.706Z,41.57
2022-12-22T08:57:02.803Z,38.21
2022-12-22T09:02:11.980Z,40.19
2022-12-22T09:07:20.539Z,53.56
2022-12-22T09:12:28.782Z,55.94
2022-12-22T09:17:38.295Z,59.69
2022-12-22T09:22:47.150Z,52.19
2022-12-22T09:27:55.968Z,42.64
2022-12-22T09:33:04.563Z,52.38
2022-12-22T09:38:13.507Z,54.62
2022-12-22T09:43:22.046Z,62.09
2022-12-22T09:48:31.067Z,72.38
2022-12-22T09:53:39.645Z,63.80
2022-12-22T09:58:48.567Z,42.75
2022-12-22T10:04:00.665Z,36.03
2022-12-22T10:09:14.716Z,52.26
2022-12-22T10:14:13.651Z,56.45
2022-12-22T10:19:22.467Z,48.66
2022-12-22T10:24:30.809Z,50.93
2022-12-22T10:29:39.441Z,49.27
2022-12-22T10:34:48.249Z,42.23
2022-12-22T10:39:57.069Z,42.33
2022-12-22T10:45:05.845Z,50.55
2022-12-22T10:50:14.550Z,34.83
2022-12-22T10:55:23.328Z,56.61
2022-12-22T11:00:32.603Z,44.31
2022-12-22T11:05:41.311Z,34.90
2022-12-22T11:10:50.604Z,30.50
2022-12-22T11:15:59.096Z,35.49
2022-12-22T11:21:07.985Z,36.51
2022-12-22T11:26:16.565Z,33.21
2022-12-22T11:31:25.907Z,31.22
2022-12-22T11:36:34.226Z,25.30
2022-12-22T11:41:43.122Z,24.40
2022-12-22T11:46:51.612Z,24.62
2022-12-22T11:52:00.516Z,25.62
2022-12-22T11:57:08.662Z,28.83
2022-12-22T12:02:17.336Z,25.16
2022-12-22T12:07:26.493Z,26.50
2022-12-22T12:12:34.385Z,32.43
2022-12-22T12:17:43.367Z,30.49
2022-12-22T12:22:52.176Z,32.15
2022-12-22T12:28:00.842Z,30.16
2022-12-22T12:33:09.496Z,38.34
2022-12-22T12:38:39.792Z,30.32
2022-12-22T12:43:26.626Z,35.23
2022-12-22T12:48:34.988Z,37.56
2022-12-22T12:53:44.519Z,34.65
2022-12-22T12:58:53.221Z,37.43
2022-12-22T13:04:04.315Z,39.97
2022-12-22T13:09:48.610Z,40.52
2022-12-22T13:14:18.243Z,37.77
2022-12-22T13:19:26.425Z,35.52
2022-12-22T13:24:35.099Z,40.58
2022-12-22T13:29:44.011Z,38.95
2022-12-22T13:35:29.047Z,58.31
2022-12-22T13:40:00.533Z,48.37
2022-12-22T13:45:09.266Z,50.35
2022-12-22T13:50:17.899Z,43.35
2022-12-22T13:55:27.421Z,51.01
2022-12-22T14:00:35.922Z,55.19
2022-12-22T14:05:44.961Z,77.36
2022-12-22T14:10:53.477Z,72.61
2022-12-22T14:16:02.590Z,51.60
2022-12-22T14:21:11.132Z,64.55
2022-12-22T14:26:20.229Z,65.27
2022-12-22T14:31:29.057Z,70.76
2022-12-22T14:36:40.804Z,53.78
2022-12-22T14:41:45.344Z,48.85
2022-12-22T14:46:54.085Z,46.60
2022-12-22T14:52:02.552Z,57.00
2022-12-22T14:57:15.225Z,61.66
2022-12-22T15:02:19.674Z,59.80
2022-12-22T15:08:04.021Z,57.22
2022-12-22T15:12:36.993Z,76.07
2022-12-22T15:17:45.725Z,66.28
2022-12-22T15:22:54.068Z,79.63
2022-12-22T15:28:02.732Z,78.43
2022-12-22T15:33:11.327Z,81.36
2022-12-22T15:38:19.898Z,78.18
2022-12-22T15:43:56.419Z,70.91
2022-12-22T15:48:36.888Z,91.12
2022-12-22T15:53:45.089Z,64.89
2022-12-22T15:58:53.727Z,93.86
2022-12-22T16:04:02.419Z,58.59
2022-12-22T16:09:11.131Z,80.17
2022-12-22T16:14:19.542Z,88.27
2022-12-22T16:19:28.184Z,66.26
2022-12-22T16:24:36.765Z,121.42
2022-12-22T16:29:45.660Z,73.00
2022-12-22T16:34:54.123Z,58.42
2022-12-22T16:40:03.028Z,67.67
2022-12-22T16:45:11.800Z,70.32
2022-12-22T16:50:20.120Z,68.85
2022-12-22T16:55:28.883Z,75.23
2022-12-22T17:00:38.631Z,77.49
2022-12-22T17:05:46.839Z,48.64
2022-12-22T17:10:55.929Z,53.19
2022-12-22T17:16:04.305Z,55.39
2022-12-22T17:21:13.395Z,52.00
2022-12-22T17:26:21.787Z,61.91
2022-12-22T17:31:30.632Z,61.05
2022-12-22T17:36:39.047Z,54.56
2022-12-22T17:41:54.383Z,59.94
2022-12-22T17:46:56.389Z,87.33
2022-12-22T17:52:05.156Z,75.93
2022-12-22T17:57:13.713Z,79.63
2022-12-22T18:02:22.667Z,70.50
2022-12-22T18:07:30.499Z,74.79
2022-12-22T18:12:39.618Z,56.72
2022-12-22T18:17:48.047Z,63.73
2022-12-22T18:22:56.989Z,55.70
2022-12-22T18:28:05.232Z,51.79
2022-12-22T18:33:14.468Z,63.92
2022-12-22T18:38:23.404Z,61.49
2022-12-22T18:43:32.960Z,56.21
2022-12-22T18:48:42.655Z,56.17
2022-12-22T18:53:52.299Z,75.75
2022-12-22T18:59:01.307Z,64.84
2022-12-22T19:04:10.740Z,61.34
2022-12-22T19:09:19.686Z,59.07
2022-12-22T19:14:29.121Z,67.99
2022-12-22T19:19:37.962Z,77.57
2022-12-22T19:24:47.233Z,53.55
2022-12-22T19:30:02.754Z,62.31
2022-12-22T19:35:03.635Z,57.92
2022-12-22T19:40:12.016Z,83.38
2022-12-22T19:45:22.091Z,118.97
2022-12-22T19:50:28.363Z,82.53
2022-12-22T19:55:37.566Z,81.42
2022-12-22T20:00:46.212Z,60.22
2022-12-22T20:05:54.909Z,52.62
2022-12-22T20:11:03.561Z,58.38
2022-12-22T20:16:12.366Z,74.33
2022-12-22T20:21:21.777Z,61.85
2022-12-22T20:26:30.674Z,64.59
2022-12-22T20:31:39.240Z,66.19
2022-12-22T20:36:47.864Z,74.63
2022-12-22T20:41:56.205Z,61.40
2022-12-22T20:47:04.993Z,60.40
2022-12-22T20:52:13.498Z,50.13
2022-12-22T20:57:22.309Z,59.23
2022-12-22T21:02:30.917Z,57.29
2022-12-22T21:07:39.939Z,47.21
2022-12-22T21:12:48.437Z,43.72
2022-12-22T21:17:58.890Z,42.40
2022-12-22T21:23:05.223Z,51.07
2022-12-22T21:28:14.260Z,45.67
2022-12-22T21:33:22.614Z,49.61
2022-12-22T21:38:31.864Z,43.44
2022-12-22T21:43:40.568Z,43.70
2022-12-22T21:48:49.526Z,39.07
2022-12-22T21:53:57.796Z,39.66
2022-12-22T21:59:07.084Z,38.91
2022-12-22T22:04:15.563Z,39.70
2022-12-22T22:09:24.587Z,40.04
2022-12-22T22:14:33.420Z,42.23
2022-12-22T22:19:42.385Z,40.09
2022-12-22T22:24:51.188Z,42.45
2022-12-22T22:30:00.294Z,42.09
2022-12-22T22:35:08.859Z,35.57
2022-12-22T22:40:17.728Z,37.41
2022-12-22T22:45:26.570Z,34.17
2022-12-22T22:50:35.458Z,36.20
2022-12-22T22:55:43.836Z,34.75
2022-12-22T23:00:52.644Z,33.89
2022-12-22T23:06:00.872Z,31.59
2022-12-22T23:11:09.704Z,35.48
2022-12-22T23:16:18.256Z,35.62
2022-12-22T23:21:27.352Z,28.16
2022-12-22T23:26:35.600Z,38.54
2022-12-22T23:31:44.655Z,45.80
2022-12-22T23:36:53.326Z,50.08
2022-12-22T23:42:01.834Z,51.93
2022-12-22T23:47:10.282Z,57.00
2022-12-22T23:52:19.017Z,52.14
2022-12-22T23:57:27.210Z,51.97
